Amunt
Inicio > meteoXarxa
Fes-te'n soci

METEOXARXA

Vilafamés
Ubicació Ajuntament
Comarca la Plana Alta
Altitud (msnm) 350
Posició geogràfica 40° 6' 52.19" N, 00° 3' 15.42" W
Model Davis Vantage VUE
Presa de dades
Font de les dades Ajuntament de Vilafamés
Estadístiques. Resum
Data Temperatura (ºC) Humitat (%) Pressió (hPa) Vent (km/h) Precipit. (mm)
Mínima Mitjana Màxima Mínima Mitjana Màxima Mínima Mitjana Màxima Predom. Mitjana Ràfega màxima Total Dies de pluja
Mínima Mitjana Màxima Mínima Mitjana Màxima
Últimes dades diàries
27-03-2017 7,5     11,6     16,7 E 4,8 32,2 2,2  
26-03-2017 6,5     11,3     16,1 E 4,7 29,0 0,0  
25-03-2017 4,4     10,6     15,6 WSW 12,2 48,3 0,0  
24-03-2017 6,1     8,6     12,2 SW 8,2 41,8 0,0  
23-03-2017 7,8     10,8     13,9 ESE 13,5 51,5 0,0  
22-03-2017 8,4     13,7     18,2 SW 8,2 40,2 0,0  
21-03-2017 9,4     13,3     17,4 ESE 4,2 25,7 0,2  
20-03-2017 8,2     14,4     21,1 ESE 3,1 22,5 0,0  
19-03-2017 9,8     15,6     22,6 E 2,7 20,9 0,0  
18-03-2017 7,3     14,7     22,5 E 3,9 25,7 0,0  
17-03-2017 6,3     12,4     19,2 E 2,6 25,7 0,0  
16-03-2017 7,1     12,8     19,5 WSW 2,4 22,5 0,0  
15-03-2017 9,1     12,8     17,2 E 5,0 38,6 0,0  
14-03-2017 9,4     12,8     17,8 E 7,6 40,2 0,0  
13-03-2017 5,7     9,3     12,8 ENE 14,6 56,3 16,4  
12-03-2017 7,8     14,3     20,7 NW 10,9 61,2 2,0  
11-03-2017 9,2     15,7     22,9 E 3,4 24,1 0,0  
10-03-2017 13,2     19,8     23,8 WSW 4,8 27,4 0,0  
09-03-2017 11,6     20,6     28,5 E 2,7 22,5 0,0  
08-03-2017 11,4     16,4     20,9 WSW 8,5 54,7 0,0  
07-03-2017 9,3     17,3     23,5 NNW 9,2 51,5 0,0  
06-03-2017 10,7     16,5     22,3 SW 12,7 72,4 0,0  
05-03-2017 6,4     12,4     17,9 SW 4,8 35,4 0,0  
04-03-2017 7,2     10,0     14,1 WSW 20,6 83,7 0,0  
03-03-2017 5,2     9,2     12,6 ESE 6,0 61,2 5,8  
02-03-2017 8,8     13,8     18,6 ESE 3,5 27,4 0,0  
01-03-2017 7,3     11,8     17,2 SE 4,5 27,4 0,0  
28-02-2017 8,1     12,5     17,0 WSW 8,5 51,5 0,0  
27-02-2017 5,3     10,7     17,8 ESE 2,7 22,5 0,2  
26-02-2017 6,1     10,8     16,3 WSW 2,4 17,7 0,0  
25-02-2017 7,0     10,1     14,4 SE 4,0 29,0 0,0  
24-02-2017 9,7     12,1     15,7 E 7,4 43,5 4,2  
Dades del mes en curs (actualitzades fins l'últim dia disponible)
03/2017 4,4 8,2 13,2 13,4 12,2 18,7 28,5   7,0 83,7 26,6  
Últimes dades mensuals
02/2017 3,5 7,5 14,0 11,2 10,8 15,7 19,5 9,9 122,3 19,2 7
01/2017 -0,3 5,0 9,0 8,6 6,3 12,7 19,1 10,2 111,0 91,8 8
12/2016 3,8 7,5 12,1 10,6 8,9 14,6 17,7 5,1 66,0 143,4 9
11/2016 5,2 9,4 14,4 12,9 10,9 16,8 23,4 6,1 74,0 110,8 10
10/2016 10,9 14,6 17,8 18,0 16,5 22,5 27,1 2,6 35,4 24,8 7
09/2016 13,0 17,8 26,2 22,2 23,5 27,4 37,7 4,2 77,2 23,4 4
08/2016 16,7 19,3 21,8 23,9 24,4 29,0 33,2 4,4 51,5 2,2 3
Dades de l'any en curs (actualitzades fins l'últim dia disponible)
2017 -0,3 6,8 14,0 11,0 6,3 15,6 28,5   9,1 122,3 137,6  
Últimes dades anuals